Time;durP1;ratioP1;P1;durP2;ratioP2;P2;SDS_P1;SDS_P2;PMS_P1;PMS_P2;Temp;Humidity;BMP_temperature;BMP_pressure;BME280_temperature;BME280_humidity;BME280_pressure;Samples;Min_cycle;Max_cycle;Signal;HPM_P1;HPM_P2
2023/05/13 00:00:18;;;;;;;7.68;4.55;;;12.80;99.90;;;;;;6233571;22;20176;-65
2023/05/13 00:02:46;;;;;;;8.25;4.47;;;12.70;99.90;;;;;;6237191;22;20180;-64
2023/05/13 00:05:13;;;;;;;6.35;4.85;;;12.70;99.90;;;;;;6250326;22;20179;-64
2023/05/13 00:07:40;;;;;;;6.43;4.97;;;12.70;99.90;;;;;;6240603;22;20172;-64
2023/05/13 00:10:08;;;;;;;6.80;4.57;;;12.60;99.90;;;;;;6241136;22;20218;-64
2023/05/13 00:12:34;;;;;;;5.47;4.60;;;12.70;99.90;;;;;;6240859;22;20206;-64
2023/05/13 00:15:01;;;;;;;12.38;4.90;;;12.60;99.90;;;;;;6227761;22;20203;-64
2023/05/13 00:17:28;;;;;;;7.88;5.00;;;12.60;99.90;;;;;;6241950;22;20178;-64
2023/05/13 00:19:56;;;;;;;6.53;5.25;;;12.60;99.90;;;;;;6247095;22;20211;-64
2023/05/13 00:22:23;;;;;;;5.93;5.25;;;12.50;99.90;;;;;;6241063;22;20638;-64
2023/05/13 00:24:50;;;;;;;9.15;5.13;;;12.40;99.90;;;;;;6247209;22;20271;-64
2023/05/13 00:27:16;;;;;;;5.50;5.00;;;12.30;99.90;;;;;;6247492;22;20179;-64
2023/05/13 00:29:43;;;;;;;6.22;4.90;;;12.20;99.90;;;;;;6241633;22;20180;-64
2023/05/13 00:32:10;;;;;;;9.85;5.32;;;12.10;99.90;;;;;;6230172;22;20187;-64
2023/05/13 00:34:37;;;;;;;6.47;5.10;;;11.90;99.90;;;;;;6244059;22;20772;-63
2023/05/13 00:37:05;;;;;;;9.65;5.22;;;11.90;99.90;;;;;;6238955;22;20319;-64
2023/05/13 00:39:32;;;;;;;9.50;5.63;;;11.90;99.90;;;;;;6249849;22;20176;-64
2023/05/13 00:41:59;;;;;;;6.78;5.05;;;11.90;99.90;;;;;;6239110;22;20926;-64
2023/05/13 00:44:27;;;;;;;8.35;5.25;;;11.90;99.90;;;;;;6242065;22;20180;-64
2023/05/13 00:46:55;;;;;;;5.50;5.00;;;12.00;99.90;;;;;;6221021;22;20201;-63
2023/05/13 00:49:22;;;;;;;8.93;5.45;;;12.00;99.90;;;;;;6234877;22;20655;-63
2023/05/13 00:51:51;;;;;;;6.85;5.63;;;11.90;99.90;;;;;;6244420;22;20183;-63
2023/05/13 00:54:19;;;;;;;11.93;6.38;;;11.80;99.90;;;;;;6236599;22;20290;-64
2023/05/13 00:56:46;;;;;;;7.85;5.82;;;11.80;99.90;;;;;;6236174;22;20179;-64
2023/05/13 00:59:12;;;;;;;6.47;5.55;;;11.80;99.90;;;;;;6243901;22;20199;-64
2023/05/13 01:01:47;;;;;;;6.93;5.18;;;11.90;99.90;;;;;;6216176;22;20485;-64
2023/05/13 01:04:24;;;;;;;7.45;5.80;;;11.90;99.90;;;;;;6237088;22;20176;-64
2023/05/13 01:07:00;;;;;;;7.53;5.57;;;12.00;99.90;;;;;;6237389;22;20176;-63
2023/05/13 01:09:37;;;;;;;6.00;5.18;;;11.90;99.90;;;;;;6234648;22;20172;-64
2023/05/13 01:12:08;;;;;;;10.23;6.70;;;11.90;99.90;;;;;;6235986;22;20172;-63
2023/05/13 01:14:52;;;;;;;7.07;5.63;;;11.80;99.90;;;;;;6248466;22;20599;-63
2023/05/13 01:17:24;;;;;;;7.75;5.78;;;11.80;99.90;;;;;;6227214;22;20180;-64
2023/05/13 01:19:54;;;;;;;6.68;5.70;;;11.70;99.90;;;;;;6241255;22;20239;-64
2023/05/13 01:22:22;;;;;;;9.02;5.63;;;11.70;99.90;;;;;;6237688;22;20176;-64
2023/05/13 01:24:49;;;;;;;7.43;5.57;;;11.60;99.90;;;;;;6241603;22;20222;-63
2023/05/13 01:27:17;;;;;;;5.95;5.28;;;11.60;99.90;;;;;;6241230;22;20258;-63
2023/05/13 01:29:45;;;;;;;7.88;5.38;;;11.60;99.90;;;;;;6251244;22;20172;-63
2023/05/13 01:32:12;;;;;;;8.73;6.03;;;11.60;99.90;;;;;;6234018;22;20179;-64
2023/05/13 01:34:40;;;;;;;6.00;5.28;;;11.60;99.90;;;;;;6245328;22;20203;-63
2023/05/13 01:37:07;;;;;;;5.90;5.35;;;11.60;99.90;;;;;;6237480;22;20503;-64
2023/05/13 01:39:37;;;;;;;5.97;5.38;;;11.60;99.90;;;;;;6230452;22;20839;-63
2023/05/13 01:42:04;;;;;;;9.23;6.10;;;11.50;99.90;;;;;;6238817;22;20172;-63
2023/05/13 01:44:31;;;;;;;8.50;5.50;;;11.50;99.90;;;;;;6233401;22;20193;-64
2023/05/13 01:46:58;;;;;;;7.47;5.45;;;11.40;99.90;;;;;;6244179;22;20200;-63
2023/05/13 01:49:25;;;;;;;8.85;5.82;;;11.40;99.90;;;;;;6223748;22;20172;-64
2023/05/13 01:51:52;;;;;;;8.55;5.88;;;11.30;99.90;;;;;;6249423;22;20183;-64
2023/05/13 01:54:19;;;;;;;6.28;5.68;;;11.30;99.90;;;;;;6245572;22;20207;-64
2023/05/13 01:56:47;;;;;;;8.70;5.75;;;11.30;99.90;;;;;;6236861;22;20172;-64
2023/05/13 01:59:14;;;;;;;14.02;5.72;;;11.30;99.90;;;;;;6237978;22;20171;-64
2023/05/13 02:01:40;;;;;;;9.00;6.05;;;11.30;99.90;;;;;;6247941;22;20177;-64
2023/05/13 02:04:07;;;;;;;8.43;5.63;;;11.20;99.90;;;;;;6228854;22;20261;-64
2023/05/13 02:06:34;;;;;;;8.52;6.05;;;11.10;99.90;;;;;;6235759;22;20254;-64
2023/05/13 02:09:01;;;;;;;6.82;6.05;;;11.10;99.90;;;;;;6249955;22;20555;-63
2023/05/13 02:11:28;;;;;;;7.78;6.15;;;11.10;99.90;;;;;;6233130;22;20176;-64
2023/05/13 02:13:56;;;;;;;8.20;6.38;;;11.10;99.90;;;;;;6240856;22;20203;-63
2023/05/13 02:16:41;;;;;;;7.70;5.50;;;11.10;99.90;;;;;;6242579;22;20664;-64
2023/05/13 02:19:08;;;;;;;9.52;6.15;;;11.10;99.90;;;;;;6238922;22;20176;-64
2023/05/13 02:21:35;;;;;;;11.32;6.95;;;11.00;99.90;;;;;;6233342;22;20183;-64
2023/05/13 02:24:01;;;;;;;6.32;5.57;;;11.00;99.90;;;;;;6248195;22;20173;-64
2023/05/13 02:26:28;;;;;;;6.57;5.88;;;11.10;99.90;;;;;;6239061;22;20208;-64
2023/05/13 02:28:56;;;;;;;11.27;6.07;;;11.10;99.90;;;;;;6243611;22;20546;-64
2023/05/13 02:31:23;;;;;;;7.85;6.10;;;11.10;99.90;;;;;;6238595;22;20253;-64
2023/05/13 02:33:50;;;;;;;10.32;6.00;;;11.10;99.90;;;;;;6248403;22;20177;-65
2023/05/13 02:36:17;;;;;;;7.97;5.82;;;11.00;99.90;;;;;;6231818;22;20231;-64
2023/05/13 02:38:44;;;;;;;12.52;6.13;;;11.10;99.90;;;;;;6242901;22;20580;-63
2023/05/13 02:41:11;;;;;;;11.43;6.38;;;11.00;99.90;;;;;;6244269;22;20234;-64
2023/05/13 02:43:38;;;;;;;9.10;5.75;;;11.10;99.90;;;;;;6241046;22;20172;-64
2023/05/13 02:46:06;;;;;;;12.30;5.70;;;11.10;99.90;;;;;;6237454;22;20200;-64
2023/05/13 02:48:33;;;;;;;8.25;6.30;;;11.00;99.90;;;;;;6243314;22;20196;-64
2023/05/13 02:51:00;;;;;;;8.10;5.70;;;10.90;99.90;;;;;;6230252;22;20663;-64
2023/05/13 02:53:27;;;;;;;9.35;5.90;;;10.90;99.90;;;;;;6241105;22;20572;-64
2023/05/13 02:55:54;;;;;;;7.35;6.07;;;10.80;99.90;;;;;;6248086;22;20297;-64
2023/05/13 02:58:21;;;;;;;8.93;6.18;;;10.70;99.90;;;;;;6231650;22;20179;-64
2023/05/13 03:00:47;;;;;;;15.95;6.60;;;10.70;99.90;;;;;;6241579;22;20176;-64
2023/05/13 03:03:16;;;;;;;8.68;5.75;;;10.60;99.90;;;;;;6244533;22;20177;-64
2023/05/13 03:05:42;;;;;;;11.63;5.88;;;10.70;99.90;;;;;;6246619;22;20257;-64
2023/05/13 03:08:09;;;;;;;8.05;6.60;;;10.60;99.90;;;;;;6227332;22;20659;-64
2023/05/13 03:10:36;;;;;;;9.20;5.97;;;10.60;99.90;;;;;;6242659;22;20176;-63
2023/05/13 03:13:03;;;;;;;13.50;6.20;;;10.50;99.90;;;;;;6246074;22;20250;-64
2023/05/13 03:15:30;;;;;;;7.60;6.22;;;10.50;99.90;;;;;;6231422;22;20538;-64
2023/05/13 03:17:57;;;;;;;9.98;6.43;;;10.40;99.90;;;;;;6253285;22;20638;-64
2023/05/13 03:20:25;;;;;;;7.03;6.03;;;10.40;99.90;;;;;;6244905;22;20265;-64
2023/05/13 03:22:52;;;;;;;9.30;6.80;;;10.30;99.90;;;;;;6227302;22;20465;-64
2023/05/13 03:25:19;;;;;;;7.93;6.57;;;10.40;99.90;;;;;;6241080;22;21121;-64
2023/05/13 03:27:45;;;;;;;8.25;6.18;;;10.30;99.90;;;;;;6245266;22;20279;-63
2023/05/13 03:30:13;;;;;;;10.70;6.75;;;10.30;99.90;;;;;;6236295;22;21034;-63
2023/05/13 03:32:40;;;;;;;8.18;6.47;;;10.30;99.90;;;;;;6237865;22;20183;-63
2023/05/13 03:35:07;;;;;;;7.65;6.30;;;10.20;99.90;;;;;;6252004;22;20223;-63
2023/05/13 03:37:36;;;;;;;7.85;6.57;;;10.20;99.90;;;;;;6226948;22;20215;-63
2023/05/13 03:40:03;;;;;;;11.23;6.93;;;10.20;99.90;;;;;;6248752;22;20179;-64
2023/05/13 03:42:30;;;;;;;10.40;6.72;;;10.30;99.90;;;;;;6238365;22;20885;-64
2023/05/13 03:44:57;;;;;;;14.77;6.60;;;10.20;99.90;;;;;;6232657;22;20551;-64
2023/05/13 03:47:24;;;;;;;11.20;6.03;;;10.10;99.90;;;;;;6242150;22;20545;-63
2023/05/13 03:49:51;;;;;;;7.35;6.07;;;10.20;99.90;;;;;;6251889;22;20651;-64
2023/05/13 03:52:18;;;;;;;8.70;6.32;;;10.20;99.90;;;;;;6226904;22;21109;-63
2023/05/13 03:54:46;;;;;;;10.98;6.53;;;10.30;99.90;;;;;;6244874;22;20231;-64
2023/05/13 03:57:13;;;;;;;9.45;6.25;;;10.30;99.90;;;;;;6236503;22;20200;-63
2023/05/13 03:59:40;;;;;;;6.63;5.93;;;10.30;99.90;;;;;;6250322;22;20196;-63
2023/05/13 04:02:07;;;;;;;6.93;5.63;;;10.30;99.90;;;;;;6227735;22;20504;-63
2023/05/13 04:04:33;;;;;;;10.60;6.65;;;10.30;99.90;;;;;;6246009;22;20187;-64
2023/05/13 04:07:00;;;;;;;7.95;6.03;;;10.30;99.90;;;;;;6224005;22;20762;-64
2023/05/13 04:09:27;;;;;;;7.20;5.90;;;10.30;99.90;;;;;;6246136;22;20207;-64
2023/05/13 04:11:55;;;;;;;14.30;6.53;;;10.30;99.90;;;;;;6236823;22;20229;-64
2023/05/13 04:14:22;;;;;;;12.63;6.18;;;10.30;99.90;;;;;;6243679;22;20728;-64
2023/05/13 04:16:49;;;;;;;7.03;5.88;;;10.30;99.90;;;;;;6236318;22;20199;-64
2023/05/13 04:19:16;;;;;;;9.02;6.32;;;10.20;99.90;;;;;;6242700;22;20657;-63
2023/05/13 04:21:43;;;;;;;9.43;5.55;;;10.20;99.90;;;;;;6243261;22;20175;-63
2023/05/13 04:24:09;;;;;;;7.07;6.07;;;10.20;99.90;;;;;;6233442;22;20173;-63
2023/05/13 04:26:38;;;;;;;7.30;5.78;;;10.30;99.90;;;;;;6246873;22;20180;-64
2023/05/13 04:29:06;;;;;;;8.88;6.78;;;10.40;99.90;;;;;;6234806;22;20176;-63
2023/05/13 04:31:33;;;;;;;11.10;6.22;;;10.40;99.90;;;;;;6241137;22;20265;-64
2023/05/13 04:34:00;;;;;;;7.55;5.93;;;10.50;99.90;;;;;;6236776;22;20176;-64
2023/05/13 04:36:27;;;;;;;11.43;6.07;;;10.50;99.90;;;;;;6247501;22;20262;-64
2023/05/13 04:38:54;;;;;;;8.35;5.68;;;10.50;99.90;;;;;;6231207;22;20220;-64
2023/05/13 04:41:21;;;;;;;9.93;5.38;;;10.50;99.90;;;;;;6249908;22;20176;-64
2023/05/13 04:43:48;;;;;;;9.18;5.70;;;10.50;99.90;;;;;;6241016;22;20182;-63
2023/05/13 04:46:16;;;;;;;8.40;5.22;;;10.50;99.90;;;;;;6240562;22;20589;-63
2023/05/13 04:48:46;;;;;;;8.35;5.90;;;10.50;99.90;;;;;;6238481;22;20224;-64
2023/05/13 04:51:13;;;;;;;7.60;5.63;;;10.50;99.90;;;;;;6249015;22;20254;-63
2023/05/13 04:53:40;;;;;;;9.00;5.90;;;10.60;99.90;;;;;;6233071;22;20234;-63
2023/05/13 04:56:08;;;;;;;9.30;5.80;;;10.60;99.90;;;;;;6239905;22;20585;-63
2023/05/13 04:58:35;;;;;;;10.48;6.50;;;10.60;99.90;;;;;;6248405;22;20281;-64
2023/05/13 05:01:01;;;;;;;7.55;5.88;;;10.70;99.90;;;;;;6234934;22;20223;-64
2023/05/13 05:03:30;;;;;;;9.48;6.10;;;10.80;99.90;;;;;;6241418;22;20223;-64
2023/05/13 05:05:56;;;;;;;8.63;6.25;;;10.80;99.90;;;;;;6238961;22;20234;-63
2023/05/13 05:08:23;;;;;;;10.10;6.43;;;10.90;99.90;;;;;;6246134;22;20172;-63
2023/05/13 05:10:50;;;;;;;11.57;5.82;;;11.00;99.90;;;;;;6232885;22;20495;-64
2023/05/13 05:13:17;;;;;;;6.78;5.88;;;11.10;99.90;;;;;;6250873;22;20362;-63
2023/05/13 05:15:44;;;;;;;10.63;5.80;;;11.20;99.90;;;;;;6244207;22;20235;-64
2023/05/13 05:18:12;;;;;;;9.55;6.53;;;11.20;99.90;;;;;;6240318;22;20225;-63
2023/05/13 05:20:40;;;;;;;8.10;6.22;;;11.30;99.90;;;;;;6245438;22;20268;-64
2023/05/13 05:23:09;;;;;;;11.13;6.07;;;11.40;99.90;;;;;;6251988;22;20176;-64
2023/05/13 05:25:36;;;;;;;7.78;5.50;;;11.50;99.90;;;;;;6236697;22;20585;-64
2023/05/13 05:28:03;;;;;;;7.82;5.82;;;11.60;99.90;;;;;;6252465;22;20176;-64
2023/05/13 05:30:31;;;;;;;9.68;6.15;;;11.60;99.90;;;;;;6247126;22;20199;-64
2023/05/13 05:32:58;;;;;;;8.30;5.45;;;11.70;99.90;;;;;;6242813;22;20176;-64
2023/05/13 05:35:25;;;;;;;9.70;6.07;;;11.70;99.90;;;;;;6242869;22;20200;-64
2023/05/13 05:37:53;;;;;;;11.57;5.95;;;11.80;99.90;;;;;;6246329;22;20176;-64
2023/05/13 05:40:20;;;;;;;8.40;6.20;;;11.80;99.90;;;;;;6251176;22;20237;-64
2023/05/13 05:42:47;;;;;;;9.05;6.43;;;11.90;99.90;;;;;;6232317;22;20180;-63
2023/05/13 05:45:14;;;;;;;7.65;6.25;;;12.00;99.90;;;;;;6238954;22;20180;-64
2023/05/13 05:47:41;;;;;;;7.57;5.85;;;12.00;99.90;;;;;;6248965;22;20622;-64
2023/05/13 05:50:08;;;;;;;8.90;6.45;;;12.10;99.90;;;;;;6240367;22;20179;-64
2023/05/13 05:52:35;;;;;;;9.65;5.60;;;12.20;99.90;;;;;;6243283;22;20519;-64
2023/05/13 05:55:05;;;;;;;6.78;5.70;;;12.30;99.90;;;;;;6246457;22;20254;-64
2023/05/13 05:57:32;;;;;;;8.18;6.15;;;12.40;99.90;;;;;;6232762;22;20283;-64
2023/05/13 05:59:59;;;;;;;8.85;6.38;;;12.40;99.90;;;;;;6240743;22;20556;-64
2023/05/13 06:02:26;;;;;;;6.88;5.80;;;12.50;99.90;;;;;;6249124;22;20230;-64
2023/05/13 06:04:53;;;;;;;13.18;5.32;;;12.60;99.90;;;;;;6233316;22;21026;-64
2023/05/13 06:07:20;;;;;;;6.00;5.40;;;12.60;99.90;;;;;;6234975;22;20204;-64
2023/05/13 06:09:46;;;;;;;9.65;5.93;;;12.70;99.90;;;;;;6248412;22;20179;-63
2023/05/13 06:12:14;;;;;;;10.63;6.70;;;12.80;99.90;;;;;;6225847;22;20279;-64
2023/05/13 06:14:41;;;;;;;9.23;5.13;;;12.80;99.90;;;;;;6251140;22;20172;-64
2023/05/13 06:17:08;;;;;;;7.18;5.57;;;12.90;99.90;;;;;;6234729;22;20200;-64
2023/05/13 06:19:35;;;;;;;8.02;5.57;;;13.00;99.90;;;;;;6241353;22;20510;-64
2023/05/13 06:22:03;;;;;;;8.57;5.40;;;13.00;99.90;;;;;;6231803;22;20437;-63
2023/05/13 06:24:30;;;;;;;10.45;6.03;;;13.10;99.90;;;;;;6247002;22;20180;-64
2023/05/13 06:26:56;;;;;;;9.35;5.75;;;13.10;99.90;;;;;;6228416;22;20172;-64
2023/05/13 06:29:25;;;;;;;7.15;5.38;;;13.20;99.90;;;;;;6244057;22;20882;-64
2023/05/13 06:31:51;;;;;;;12.70;5.88;;;13.20;99.90;;;;;;6235723;22;20183;-64
2023/05/13 06:34:18;;;;;;;11.32;5.97;;;13.30;99.90;;;;;;6239739;22;20429;-64
2023/05/13 06:36:45;;;;;;;9.63;5.53;;;13.30;99.90;;;;;;6239844;22;20215;-64
2023/05/13 06:39:12;;;;;;;7.63;5.15;;;13.40;99.90;;;;;;6232559;22;20271;-64
2023/05/13 06:41:39;;;;;;;7.88;5.50;;;13.40;99.90;;;;;;6240069;22;20486;-64
2023/05/13 06:44:07;;;;;;;6.78;5.70;;;13.50;99.90;;;;;;6224579;22;20192;-64
2023/05/13 06:46:35;;;;;;;7.95;5.40;;;13.60;99.90;;;;;;6232975;22;20806;-63
2023/05/13 06:49:02;;;;;;;9.93;5.47;;;13.60;99.90;;;;;;6246970;22;20192;-63
2023/05/13 06:51:29;;;;;;;6.07;5.15;;;13.60;99.90;;;;;;6236942;22;20192;-64
2023/05/13 06:53:56;;;;;;;10.90;5.40;;;13.70;99.90;;;;;;6236243;22;20196;-64
2023/05/13 06:56:23;;;;;;;10.55;5.00;;;13.80;99.90;;;;;;6241628;22;20324;-64
2023/05/13 06:58:50;;;;;;;10.50;5.47;;;13.80;99.90;;;;;;6227849;22;20671;-64
2023/05/13 07:01:17;;;;;;;8.52;5.32;;;13.90;99.90;;;;;;6231188;22;20279;-64
2023/05/13 07:03:45;;;;;;;8.48;5.55;;;13.90;99.90;;;;;;6243516;22;20192;-63
2023/05/13 07:06:12;;;;;;;8.57;5.47;;;14.00;99.90;;;;;;6235880;22;20175;-64
2023/05/13 07:08:39;;;;;;;7.43;4.80;;;14.00;99.90;;;;;;6228358;22;20310;-64
2023/05/13 07:11:06;;;;;;;9.85;5.32;;;14.10;99.90;;;;;;6243844;22;20192;-64
2023/05/13 07:13:33;;;;;;;9.68;5.20;;;14.20;99.90;;;;;;6232503;22;20397;-64
2023/05/13 07:16:01;;;;;;;9.18;5.20;;;14.20;99.90;;;;;;6228633;22;20690;-64
2023/05/13 07:18:28;;;;;;;8.52;4.90;;;14.30;99.90;;;;;;6226350;22;20589;-64
2023/05/13 07:20:56;;;;;;;6.57;4.53;;;14.40;99.90;;;;;;6236211;22;20203;-64
2023/05/13 07:23:23;;;;;;;7.72;5.13;;;14.40;99.90;;;;;;6237206;22;20172;-64
2023/05/13 07:25:50;;;;;;;10.00;5.60;;;14.60;99.90;;;;;;6233797;22;20196;-64
2023/05/13 07:28:19;;;;;;;6.60;4.57;;;14.60;99.90;;;;;;6236388;22;20180;-64
2023/05/13 07:30:46;;;;;;;14.52;4.97;;;14.70;99.90;;;;;;6230208;22;20180;-64
2023/05/13 07:33:13;;;;;;;8.68;4.97;;;14.80;99.90;;;;;;6237577;22;20196;-64
2023/05/13 07:35:40;;;;;;;7.03;4.60;;;14.80;99.90;;;;;;6242934;22;20731;-64
2023/05/13 07:38:09;;;;;;;5.43;4.50;;;14.90;99.90;;;;;;6237897;22;20200;-64
2023/05/13 07:40:36;;;;;;;9.43;4.93;;;15.00;99.90;;;;;;6236803;22;20204;-64
2023/05/13 07:43:03;;;;;;;6.70;4.53;;;15.00;99.90;;;;;;6236399;22;20187;-64
2023/05/13 07:45:30;;;;;;;6.97;4.72;;;15.10;99.90;;;;;;6233284;22;20192;-64
2023/05/13 07:47:57;;;;;;;9.02;4.40;;;15.20;99.90;;;;;;6234602;22;20730;-64
2023/05/13 07:50:24;;;;;;;5.90;4.63;;;15.20;99.90;;;;;;6218900;22;20172;-64
2023/05/13 07:52:50;;;;;;;6.07;3.58;;;15.30;99.90;;;;;;6228719;22;20196;-64
2023/05/13 07:55:19;;;;;;;8.15;4.30;;;15.60;99.90;;;;;;6233927;22;20192;-64
2023/05/13 07:57:45;;;;;;;9.27;4.53;;;15.80;99.90;;;;;;6224192;22;20204;-64
2023/05/13 08:00:14;;;;;;;8.25;4.65;;;15.80;99.90;;;;;;6241638;22;20192;-64
2023/05/13 08:02:42;;;;;;;6.57;4.55;;;16.00;99.90;;;;;;6222290;22;20180;-64
2023/05/13 08:05:09;;;;;;;8.27;4.10;;;16.00;99.90;;;;;;6221236;22;20303;-64
2023/05/13 08:07:36;;;;;;;6.20;4.40;;;16.00;99.90;;;;;;6227284;22;20348;-64
2023/05/13 08:10:03;;;;;;;5.95;4.72;;;16.00;99.90;;;;;;6243353;22;20583;-64
2023/05/13 08:12:31;;;;;;;9.15;4.55;;;16.00;99.90;;;;;;6231789;22;20405;-64
2023/05/13 08:14:58;;;;;;;6.35;4.25;;;16.10;99.90;;;;;;6239473;22;20202;-65
2023/05/13 08:17:25;;;;;;;5.30;4.32;;;16.20;99.90;;;;;;6222421;22;20559;-65
2023/05/13 08:19:52;;;;;;;9.73;4.40;;;16.20;99.90;;;;;;6232192;22;21096;-65
2023/05/13 08:22:19;;;;;;;6.47;3.75;;;16.30;99.90;;;;;;6233486;22;20214;-64
2023/05/13 08:24:45;;;;;;;6.65;4.00;;;16.50;99.90;;;;;;6246350;22;20194;-64
2023/05/13 08:27:12;;;;;;;5.05;3.95;;;16.50;99.90;;;;;;6225702;22;20193;-65
2023/05/13 08:29:40;;;;;;;8.68;4.32;;;16.70;99.90;;;;;;6229434;22;20261;-64
2023/05/13 08:32:07;;;;;;;6.88;4.20;;;16.60;99.90;;;;;;6227930;22;20274;-64
2023/05/13 08:34:34;;;;;;;5.10;3.92;;;16.70;99.90;;;;;;6235303;22;20279;-64
2023/05/13 08:37:01;;;;;;;4.03;3.28;;;16.80;99.90;;;;;;6251459;22;20192;-64
2023/05/13 08:39:28;;;;;;;4.95;3.60;;;16.90;99.90;;;;;;6239710;22;20299;-64
2023/05/13 08:41:57;;;;;;;5.22;3.50;;;16.90;99.90;;;;;;6242364;22;20203;-64
2023/05/13 08:44:27;;;;;;;5.90;3.72;;;16.90;99.90;;;;;;6238953;22;20203;-64
2023/05/13 08:47:04;;;;;;;4.07;3.50;;;16.90;99.90;;;;;;6243528;22;20635;-64
2023/05/13 08:49:31;;;;;;;10.73;3.42;;;17.20;99.90;;;;;;6229604;22;20172;-64
2023/05/13 08:51:58;;;;;;;4.78;3.70;;;17.20;99.90;;;;;;6252018;22;20199;-64
2023/05/13 08:54:26;;;;;;;6.38;3.38;;;17.30;99.90;;;;;;6234201;22;20179;-64
2023/05/13 08:56:53;;;;;;;11.00;3.65;;;17.20;99.90;;;;;;6247264;22;20203;-64
2023/05/13 08:59:20;;;;;;;4.43;3.03;;;17.20;99.90;;;;;;6229379;22;20195;-64
2023/05/13 09:01:48;;;;;;;6.30;3.35;;;17.20;99.90;;;;;;6234814;22;20199;-64
2023/05/13 09:04:18;;;;;;;17.90;4.15;;;17.40;99.90;;;;;;6203312;22;20176;-65
2023/05/13 09:06:47;;;;;;;5.00;3.22;;;17.40;99.90;;;;;;6217644;22;20200;-64
2023/05/13 09:09:14;;;;;;;10.57;3.70;;;17.60;99.90;;;;;;6225734;22;20246;-64
2023/05/13 09:11:41;;;;;;;16.52;4.05;;;17.60;99.90;;;;;;6229204;22;20172;-65
2023/05/13 09:14:10;;;;;;;10.48;3.58;;;17.70;99.90;;;;;;6228987;22;20172;-65
2023/05/13 09:16:38;;;;;;;6.10;3.90;;;17.90;99.90;;;;;;6229774;22;20207;-65
2023/05/13 09:19:06;;;;;;;7.45;3.50;;;18.00;99.90;;;;;;6231198;22;20621;-64
2023/05/13 09:21:35;;;;;;;6.97;3.13;;;18.10;99.90;;;;;;6223079;22;20257;-65
2023/05/13 09:24:20;;;;;;;7.28;3.60;;;18.10;99.90;;;;;;6232080;22;20500;-65
2023/05/13 09:26:48;;;;;;;6.10;3.60;;;18.20;99.90;;;;;;6222006;22;20200;-64
2023/05/13 09:29:16;;;;;;;13.23;3.42;;;18.30;99.90;;;;;;6229154;22;20227;-65
2023/05/13 09:31:43;;;;;;;5.13;3.20;;;18.40;99.90;;;;;;6231986;22;20192;-65
2023/05/13 09:34:11;;;;;;;3.95;3.33;;;18.40;99.90;;;;;;6230020;22;20192;-65
2023/05/13 09:36:40;;;;;;;5.45;3.30;;;18.50;99.90;;;;;;6208211;22;20179;-65
2023/05/13 09:39:07;;;;;;;6.72;3.10;;;18.50;99.90;;;;;;6231437;22;20180;-65
2023/05/13 09:41:34;;;;;;;4.53;3.05;;;18.60;99.90;;;;;;6225214;22;20172;-65
2023/05/13 09:44:03;;;;;;;5.50;3.08;;;18.70;99.90;;;;;;6229833;22;20218;-65
2023/05/13 09:46:32;;;;;;;9.25;3.50;;;18.80;99.90;;;;;;6236298;22;20223;-65
2023/05/13 09:48:58;;;;;;;7.30;3.00;;;18.90;99.90;;;;;;6231196;22;20196;-65
2023/05/13 09:51:27;;;;;;;6.35;3.50;;;18.90;99.90;;;;;;6221339;22;20192;-65
2023/05/13 09:53:55;;;;;;;4.82;2.72;;;18.90;99.90;;;;;;6233137;22;20998;-65
2023/05/13 09:56:23;;;;;;;3.35;2.70;;;18.80;99.90;;;;;;6237339;22;20180;-65
2023/05/13 09:58:53;;;;;;;4.05;3.08;;;18.80;99.90;;;;;;6242853;22;20718;-65
2023/05/13 10:01:21;;;;;;;6.65;2.58;;;18.80;99.90;;;;;;6228421;22;20930;-65
2023/05/13 10:03:48;;;;;;;3.78;2.58;;;18.80;99.90;;;;;;6228292;22;20203;-64
2023/05/13 10:06:17;;;;;;;6.00;2.50;;;19.10;99.90;;;;;;6246016;22;20176;-65
2023/05/13 10:08:46;;;;;;;6.85;2.90;;;19.20;99.90;;;;;;6211597;22;20391;-65
2023/05/13 10:11:15;;;;;;;5.82;3.03;;;19.20;99.90;;;;;;6231933;22;20192;-65
2023/05/13 10:13:43;;;;;;;3.00;2.67;;;19.20;99.90;;;;;;6241696;22;20183;-65
2023/05/13 10:16:11;;;;;;;5.13;2.92;;;19.30;99.90;;;;;;6234379;22;20873;-65
2023/05/13 10:18:37;;;;;;;6.43;2.97;;;19.30;99.90;;;;;;6222177;22;20717;-65
2023/05/13 10:21:05;;;;;;;3.45;2.70;;;19.30;99.90;;;;;;6246239;22;20176;-65
2023/05/13 10:23:33;;;;;;;4.03;2.78;;;19.30;99.90;;;;;;6220116;22;20177;-65
2023/05/13 10:26:00;;;;;;;8.63;2.63;;;19.30;99.90;;;;;;6242073;22;20279;-65
2023/05/13 10:28:29;;;;;;;6.47;2.85;;;19.40;99.90;;;;;;6232007;22;20524;-65
2023/05/13 10:30:56;;;;;;;7.60;2.83;;;19.40;99.90;;;;;;6221109;22;20573;-65
2023/05/13 10:33:23;;;;;;;3.97;3.03;;;19.60;99.90;;;;;;6234631;22;20198;-65
2023/05/13 10:36:01;;;;;;;5.78;2.92;;;19.60;99.90;;;;;;6234208;22;20488;-65
2023/05/13 10:38:43;;;;;;;8.45;2.88;;;19.70;99.90;;;;;;6210671;22;20211;-65
2023/05/13 10:41:14;;;;;;;6.90;2.85;;;19.70;99.90;;;;;;6225794;22;20196;-65
2023/05/13 10:43:42;;;;;;;4.10;2.53;;;19.70;99.90;;;;;;6226666;22;20196;-65
2023/05/13 10:46:12;;;;;;;8.43;3.20;;;19.70;99.90;;;;;;6231622;22;20196;-65
2023/05/13 10:48:41;;;;;;;4.90;2.80;;;19.70;99.90;;;;;;6230970;22;20192;-65
2023/05/13 10:51:10;;;;;;;4.40;2.42;;;19.70;99.90;;;;;;6233863;22;20192;-65
2023/05/13 10:53:43;;;;;;;8.52;2.67;;;19.70;99.90;;;;;;6213687;22;20207;-65
2023/05/13 10:56:10;;;;;;;5.10;2.45;;;19.60;99.90;;;;;;6234584;22;20196;-65
2023/05/13 10:58:38;;;;;;;3.70;2.70;;;19.70;99.90;;;;;;6229743;22;20208;-65
2023/05/13 11:01:17;;;;;;;3.95;2.65;;;19.90;99.90;;;;;;6236750;22;20229;-65
2023/05/13 11:03:52;;;;;;;9.55;2.60;;;20.00;99.90;;;;;;6237447;22;20180;-65
2023/05/13 11:06:21;;;;;;;4.15;2.75;;;20.10;99.90;;;;;;6232201;22;20203;-65
2023/05/13 11:08:49;;;;;;;5.13;2.72;;;20.00;99.90;;;;;;6219412;22;20258;-65
2023/05/13 11:11:31;;;;;;;4.35;2.60;;;19.80;99.90;;;;;;6237599;22;20199;-65
2023/05/13 11:14:07;;;;;;;5.53;2.85;;;19.60;99.90;;;;;;6229483;22;20390;-65
2023/05/13 11:16:36;;;;;;;3.35;2.85;;;19.80;99.90;;;;;;6238116;22;20195;-65
2023/05/13 11:19:03;;;;;;;4.45;2.97;;;19.90;99.90;;;;;;6245513;22;20617;-65
2023/05/13 11:21:32;;;;;;;8.25;2.90;;;19.90;99.90;;;;;;6232097;22;20183;-65
2023/05/13 11:24:04;;;;;;;10.45;3.05;;;19.80;99.90;;;;;;6220332;22;20430;-64
2023/05/13 11:26:45;;;;;;;7.18;2.75;;;19.80;99.90;;;;;;6221196;22;20909;-65
2023/05/13 11:29:12;;;;;;;6.50;2.75;;;19.70;99.90;;;;;;6221329;22;20176;-65
2023/05/13 11:31:45;;;;;;;2.90;2.60;;;19.70;99.90;;;;;;6240432;22;20203;-65
2023/05/13 11:34:13;;;;;;;4.28;2.90;;;19.60;99.90;;;;;;6205989;22;20315;-65
2023/05/13 11:36:42;;;;;;;8.15;2.80;;;19.60;99.90;;;;;;6225315;22;20793;-65
2023/05/13 11:39:12;;;;;;;3.15;2.83;;;19.70;99.90;;;;;;6214843;22;20689;-65
2023/05/13 11:41:41;;;;;;;4.28;2.80;;;19.80;99.90;;;;;;6227240;22;20198;-65
2023/05/13 11:44:09;;;;;;;10.05;3.28;;;19.70;99.90;;;;;;6224251;22;20207;-65
2023/05/13 11:46:36;;;;;;;5.68;3.17;;;19.70;99.90;;;;;;6224606;22;20212;-64
2023/05/13 11:49:04;;;;;;;4.78;2.75;;;19.50;99.90;;;;;;6225929;22;20196;-65
2023/05/13 11:51:33;;;;;;;8.27;2.63;;;19.50;99.90;;;;;;6229496;22;20179;-65
2023/05/13 11:54:01;;;;;;;3.55;3.00;;;19.50;99.90;;;;;;6224269;22;20187;-65
2023/05/13 11:56:28;;;;;;;3.63;2.97;;;19.40;99.90;;;;;;6211290;22;20912;-64
2023/05/13 11:58:55;;;;;;;4.68;3.03;;;19.30;99.90;;;;;;6228827;22;20554;-65
2023/05/13 12:01:24;;;;;;;2.97;2.60;;;19.40;99.90;;;;;;6232764;22;20812;-64
2023/05/13 12:04:00;;;;;;;3.83;2.90;;;19.50;99.90;;;;;;6224651;22;20192;-64
2023/05/13 12:06:29;;;;;;;5.05;3.28;;;19.60;99.90;;;;;;6232992;22;21049;-64
2023/05/13 12:08:56;;;;;;;9.15;2.72;;;19.80;99.90;;;;;;6228827;22;20195;-64
2023/05/13 12:11:23;;;;;;;8.65;5.50;;;19.90;99.90;;;;;;6213032;22;20871;-64
2023/05/13 12:13:51;;;;;;;20.05;9.65;;;19.90;99.90;;;;;;6232771;22;20279;-64
2023/05/13 12:16:19;;;;;;;26.02;12.10;;;19.70;99.90;;;;;;6225605;22;20859;-64
2023/05/13 12:18:56;;;;;;;45.72;23.67;;;19.60;99.90;;;;;;6234805;22;20215;-64
2023/05/13 12:21:23;;;;;;;31.95;15.57;;;19.50;99.90;;;;;;6235585;22;20527;-65
2023/05/13 12:23:51;;;;;;;22.98;9.70;;;19.50;99.90;;;;;;6226509;22;20697;-64
2023/05/13 12:26:19;;;;;;;29.63;12.38;;;19.60;99.90;;;;;;6218071;22;20192;-65
2023/05/13 12:28:46;;;;;;;46.30;16.35;;;19.50;99.90;;;;;;6230348;22;20196;-65
2023/05/13 12:31:17;;;;;;;21.63;8.30;;;19.40;99.90;;;;;;6225333;22;20628;-65
2023/05/13 12:33:45;;;;;;;86.65;27.88;;;19.30;99.90;;;;;;6233214;22;20192;-65
2023/05/13 12:36:18;;;;;;;50.15;16.20;;;19.30;99.90;;;;;;6240279;22;20690;-64
2023/05/13 12:38:56;;;;;;;155.43;43.25;;;19.30;99.90;;;;;;6237461;22;20211;-64
2023/05/13 12:41:24;;;;;;;76.57;24.23;;;19.20;99.90;;;;;;6226197;22;20192;-65
2023/05/13 12:43:55;;;;;;;21.25;6.60;;;19.30;99.90;;;;;;6239244;22;21193;-64
2023/05/13 12:46:21;;;;;;;13.35;5.40;;;19.50;99.90;;;;;;6229579;22;20539;-65
2023/05/13 12:48:49;;;;;;;7.30;4.30;;;19.70;99.90;;;;;;6246292;22;20178;-65